createdAt,value
2023-04-21T00:01:13.924Z,5.43
2023-04-21T00:06:22.771Z,5.34
2023-04-21T00:11:26.644Z,5.22
2023-04-21T00:16:31.823Z,5.34
2023-04-21T00:21:37.005Z,5.36
2023-04-21T00:26:40.384Z,5.38
2023-04-21T00:31:45.224Z,5.17
2023-04-21T00:36:48.752Z,5.22
2023-04-21T00:41:52.248Z,5.13
2023-04-21T00:46:57.247Z,5.09
2023-04-21T00:52:00.797Z,5.07
2023-04-21T00:57:04.651Z,4.96
2023-04-21T01:02:09.622Z,4.97
2023-04-21T01:07:12.910Z,4.93
2023-04-21T01:12:16.387Z,4.80
2023-04-21T01:17:21.730Z,4.82
2023-04-21T01:22:26.914Z,4.71
2023-04-21T01:27:30.584Z,4.63
2023-04-21T01:32:34.097Z,4.53
2023-04-21T01:37:39.434Z,4.46
2023-04-21T01:42:44.470Z,4.40
2023-04-21T01:47:48.063Z,4.34
2023-04-21T01:52:53.087Z,4.30
2023-04-21T01:57:57.878Z,4.24
2023-04-21T02:03:01.563Z,4.06
2023-04-21T02:08:07.150Z,3.97
2023-04-21T02:13:10.769Z,3.92
2023-04-21T02:18:15.100Z,3.88
2023-04-21T02:23:19.998Z,3.94
2023-04-21T02:28:23.422Z,4.11
2023-04-21T02:33:27.113Z,4.19
2023-04-21T02:38:32.136Z,4.33
2023-04-21T02:43:35.442Z,4.53
2023-04-21T02:48:39.021Z,4.53
2023-04-21T02:53:43.919Z,4.58
2023-04-21T02:58:47.462Z,4.46
2023-04-21T03:03:51.049Z,4.51
2023-04-21T03:08:56.865Z,4.55
2023-04-21T03:14:00.361Z,4.68
2023-04-21T03:19:03.908Z,4.93
2023-04-21T03:24:09.751Z,5.20
2023-04-21T03:29:13.278Z,5.42
2023-04-21T03:34:16.874Z,5.70
2023-04-21T03:39:21.993Z,6.03
2023-04-21T03:44:27.388Z,6.32
2023-04-21T03:49:30.868Z,6.60
2023-04-21T03:54:35.739Z,8.22
2023-04-21T03:59:38.981Z,15.37
2023-04-21T04:04:42.633Z,18.71
2023-04-21T04:09:47.656Z,20.99
2023-04-21T04:14:51.192Z,23.38
2023-04-21T04:19:54.709Z,25.16
2023-04-21T04:24:59.904Z,27.28
2023-04-21T04:30:04.813Z,27.75
2023-04-21T04:35:09.730Z,28.74
2023-04-21T04:40:15.548Z,29.71
2023-04-21T04:45:21.530Z,30.58
2023-04-21T04:50:25.271Z,31.34
2023-04-21T04:55:30.394Z,32.94
2023-04-21T05:00:34.013Z,33.54
2023-04-21T05:05:37.441Z,32.89
2023-04-21T05:10:42.354Z,34.13
2023-04-21T05:15:45.801Z,34.02
2023-04-21T05:20:49.279Z,35.32
2023-04-21T05:25:53.906Z,36.51
2023-04-21T05:30:57.322Z,37.21
2023-04-21T05:36:00.782Z,37.14
2023-04-21T05:41:06.408Z,35.53
2023-04-21T05:46:11.510Z,36.85
2023-04-21T05:51:16.649Z,37.66
2023-04-21T05:56:21.577Z,39.83
2023-04-21T06:01:25.414Z,39.72
2023-04-21T06:06:29.281Z,39.36
2023-04-21T06:11:34.678Z,39.75
2023-04-21T06:16:38.361Z,40.99
2023-04-21T06:21:42.088Z,40.13
2023-04-21T06:26:47.151Z,41.19
2023-04-21T06:31:50.747Z,42.16
2023-04-21T06:36:54.529Z,43.51
2023-04-21T06:41:59.424Z,43.99
2023-04-21T06:47:02.962Z,44.06
2023-04-21T06:52:06.624Z,43.91
2023-04-21T06:57:11.534Z,42.33
2023-04-21T07:02:15.063Z,42.42
2023-04-21T07:07:18.813Z,41.55
2023-04-21T07:12:24.132Z,41.33
2023-04-21T07:17:27.747Z,41.02
2023-04-21T07:22:31.674Z,41.35
2023-04-21T07:27:37.260Z,41.10
2023-04-21T07:32:40.964Z,40.75
2023-04-21T07:37:44.653Z,38.48
2023-04-21T07:42:49.622Z,39.50
2023-04-21T07:47:53.191Z,39.77
2023-04-21T07:52:56.804Z,39.91
2023-04-21T07:58:01.791Z,40.32
2023-04-21T08:03:05.696Z,39.37
2023-04-21T08:08:10.006Z,38.44
2023-04-21T08:13:15.080Z,37.99
2023-04-21T08:18:22.093Z,36.80
2023-04-21T08:23:26.326Z,35.14
2023-04-21T08:28:31.255Z,33.65
2023-04-21T08:33:34.840Z,29.72
2023-04-21T08:38:39.021Z,27.10
2023-04-21T08:43:44.095Z,25.41
2023-04-21T08:48:48.902Z,24.04
2023-04-21T08:53:52.486Z,23.60
2023-04-21T08:58:57.680Z,23.12
2023-04-21T09:04:17.648Z,22.25
2023-04-21T09:09:21.907Z,22.18
2023-04-21T09:14:34.133Z,21.80
2023-04-21T09:19:37.841Z,21.18
2023-04-21T09:24:47.101Z,20.80
2023-04-21T09:29:52.130Z,20.67
2023-04-21T09:35:01.587Z,19.95
2023-04-21T09:40:08.920Z,20.23
2023-04-21T09:50:51.287Z,19.71
2023-04-21T09:55:49.363Z,19.27
2023-04-21T10:00:57.565Z,19.68
2023-04-21T10:06:02.229Z,19.91
2023-04-21T10:11:06.904Z,20.55
2023-04-21T10:16:12.311Z,20.30
2023-04-21T10:21:22.265Z,19.53
2023-04-21T10:26:27.519Z,19.48
2023-04-21T10:31:34.802Z,20.10
2023-04-21T10:36:45.113Z,19.43
2023-04-21T10:41:49.002Z,18.67
2023-04-21T10:46:55.167Z,18.68
2023-04-21T10:52:06.419Z,18.96
2023-04-21T10:57:11.652Z,19.35
2023-04-21T11:02:18.753Z,19.23
2023-04-21T11:07:24.359Z,18.89
2023-04-21T11:12:32.808Z,18.59
2023-04-21T11:17:40.082Z,18.80
2023-04-21T11:22:43.750Z,19.05
2023-04-21T11:27:56.107Z,19.64
2023-04-21T11:33:01.296Z,19.26
2023-04-21T11:38:06.866Z,18.47
2023-04-21T11:43:10.546Z,18.31
2023-04-21T11:48:19.754Z,18.10
2023-04-21T11:53:23.405Z,18.44
2023-04-21T11:58:28.325Z,19.10
2023-04-21T12:03:34.074Z,19.35
2023-04-21T12:08:37.710Z,18.77
2023-04-21T12:13:42.022Z,18.56
2023-04-21T12:18:46.857Z,18.53
2023-04-21T12:23:50.594Z,18.48
2023-04-21T12:28:54.626Z,18.51
2023-04-21T12:33:59.597Z,18.52
2023-04-21T12:39:03.331Z,18.48
2023-04-21T12:44:07.527Z,18.37
2023-04-21T12:49:12.559Z,18.54
2023-04-21T12:54:16.319Z,18.96
2023-04-21T12:59:19.902Z,18.98
2023-04-21T13:04:25.192Z,18.81
2023-04-21T13:09:29.030Z,18.24
2023-04-21T13:14:32.603Z,18.22
2023-04-21T13:19:37.518Z,18.05
2023-04-21T13:24:41.350Z,17.98
2023-04-21T13:29:45.711Z,17.92
2023-04-21T13:34:50.638Z,17.84
2023-04-21T13:39:54.225Z,17.82
2023-04-21T13:44:57.751Z,17.84
2023-04-21T13:50:03.107Z,17.69
2023-04-21T13:55:08.900Z,17.53
2023-04-21T14:00:13.368Z,17.45
2023-04-21T14:05:18.247Z,17.29
2023-04-21T14:10:22.097Z,17.32
2023-04-21T14:15:26.229Z,17.30
2023-04-21T14:20:31.264Z,17.28
2023-04-21T14:25:34.793Z,17.12
2023-04-21T14:30:38.700Z,17.02
2023-04-21T14:35:43.617Z,16.75
2023-04-21T14:40:47.089Z,16.62
2023-04-21T14:45:50.903Z,16.58
2023-04-21T14:50:58.029Z,16.73
2023-04-21T14:56:01.814Z,16.77
2023-04-21T15:01:05.885Z,16.51
2023-04-21T15:06:11.236Z,16.12
2023-04-21T15:11:14.890Z,15.83
2023-04-21T15:16:18.389Z,15.60
2023-04-21T15:21:23.466Z,15.41
2023-04-21T15:26:27.008Z,15.27
2023-04-21T15:31:30.687Z,15.13
2023-04-21T15:36:35.881Z,15.12
2023-04-21T15:41:39.557Z,15.15
2023-04-21T15:46:43.550Z,15.20
2023-04-21T15:51:48.669Z,15.09
2023-04-21T15:56:52.124Z,15.07
2023-04-21T16:01:57.173Z,14.93
2023-04-21T16:07:02.379Z,14.84
2023-04-21T16:12:10.282Z,14.71
2023-04-21T16:17:14.728Z,14.54
2023-04-21T16:22:20.502Z,14.50
2023-04-21T16:27:24.079Z,14.38
2023-04-21T16:32:27.620Z,14.28
2023-04-21T16:37:32.629Z,14.11
2023-04-21T16:42:36.221Z,13.97
2023-04-21T16:47:42.094Z,13.81
2023-04-21T16:52:47.594Z,13.73
2023-04-21T16:57:51.263Z,13.62
2023-04-21T17:02:54.855Z,13.57
2023-04-21T17:07:59.878Z,13.50
2023-04-21T17:13:04.567Z,13.36
2023-04-21T17:18:08.127Z,13.21
2023-04-21T17:23:13.197Z,13.05
2023-04-21T17:28:16.804Z,12.83
2023-04-21T17:33:20.335Z,12.68
2023-04-21T17:38:25.471Z,12.53
2023-04-21T17:43:29.287Z,12.31
2023-04-21T17:48:32.917Z,12.04
2023-04-21T17:53:37.763Z,11.82
2023-04-21T17:58:41.550Z,11.69
2023-04-21T18:03:45.280Z,11.45
2023-04-21T18:08:50.364Z,11.22
2023-04-21T18:13:54.456Z,11.07
2023-04-21T18:18:57.878Z,10.95
2023-04-21T18:24:02.872Z,10.79
2023-04-21T18:29:06.472Z,10.53
2023-04-21T18:34:11.884Z,10.40
2023-04-21T18:39:16.811Z,10.31
2023-04-21T18:44:20.079Z,10.17
2023-04-21T18:49:23.776Z,9.98
2023-04-21T18:54:28.655Z,9.96
2023-04-21T18:59:31.775Z,9.81
2023-04-21T19:04:35.353Z,9.70
2023-04-21T19:09:40.364Z,9.55
2023-04-21T19:14:47.446Z,9.44
2023-04-21T19:19:51.457Z,9.35
2023-04-21T19:24:57.246Z,9.27
2023-04-21T19:30:00.898Z,9.22
2023-04-21T19:35:04.901Z,9.18
2023-04-21T19:40:11.485Z,9.06
2023-04-21T19:45:14.985Z,8.91
2023-04-21T19:50:18.718Z,8.78
2023-04-21T19:55:24.094Z,8.83
2023-04-21T20:00:27.687Z,8.83
2023-04-21T20:05:31.195Z,8.85
2023-04-21T20:10:37.666Z,8.83
2023-04-21T20:15:42.199Z,8.72
2023-04-21T20:20:45.808Z,8.58
2023-04-21T20:25:50.714Z,8.65
2023-04-21T20:30:53.962Z,8.66
2023-04-21T20:35:57.500Z,8.71
2023-04-21T20:41:02.516Z,8.62
2023-04-21T20:46:06.134Z,8.88
2023-04-21T20:51:09.684Z,8.78
2023-04-21T20:56:14.555Z,8.76
2023-04-21T21:01:18.348Z,8.76
2023-04-21T21:06:22.346Z,8.85
2023-04-21T21:11:27.380Z,8.83
2023-04-21T21:16:31.524Z,8.97
2023-04-21T21:21:34.995Z,8.97
2023-04-21T21:26:42.533Z,9.07
2023-04-21T21:31:46.515Z,9.20
2023-04-21T21:36:50.044Z,9.20
2023-04-21T21:41:55.317Z,9.25
2023-04-21T21:46:58.829Z,9.11
2023-04-21T21:52:02.776Z,8.89
2023-04-21T21:57:07.810Z,8.88
2023-04-21T22:02:11.410Z,8.89
2023-04-21T22:07:15.106Z,8.87
2023-04-21T22:12:20.014Z,8.88
2023-04-21T22:17:23.797Z,8.89
2023-04-21T22:22:27.382Z,8.94
2023-04-21T22:27:33.879Z,9.02
2023-04-21T22:32:37.710Z,9.05
2023-04-21T22:37:41.153Z,9.06
2023-04-21T22:42:46.163Z,9.11
2023-04-21T22:47:49.823Z,9.06
2023-04-21T22:52:53.511Z,9.05
2023-04-21T22:57:58.412Z,9.08
2023-04-21T23:03:01.860Z,9.05
2023-04-21T23:08:05.762Z,9.00
2023-04-21T23:13:11.100Z,9.03
2023-04-21T23:18:14.563Z,9.01
2023-04-21T23:23:19.763Z,8.93
2023-04-21T23:28:25.103Z,8.87
2023-04-21T23:33:28.650Z,8.73
2023-04-21T23:38:32.116Z,8.60
2023-04-21T23:43:37.400Z,8.53
2023-04-21T23:48:40.818Z,8.38
2023-04-21T23:53:44.398Z,8.16
2023-04-21T23:58:49.347Z,8.01
